Terminal Aerodrome Forecast
Issued by NWS Billings, MT

Home | Current Version | Previous Version | Text Only | Print | Product List | Glossary On
Versions: 1 2 3 4 5 6 7 8 9 10 11 12 13 14 15 16 17 18 19 20 21 22 23 24 25 26 27 28 29 30 31 32
000
FTUS45 KBYZ 030311 AAC
TAFBIL
TAF AMD
KBIL 030311Z 0303/0324 02015G22KT 3SM -SN BLSN BKN025 OVC035
      TEMPO 0303/0306 1/2SM -SN FZFG BKN010
     FM030600 03020G35KT 1SM -SN BLSN BKN015 OVC040
     FM031300 34016KT 3SM -SN BLSN SCT008 OVC014
     FM031600 35011KT 6SM -SN BR SCT010 BKN035=

USA.gov is the U.S. government's official web portal to all federal, state and local government web resources and services.